Time;durP1;ratioP1;P1;durP2;ratioP2;P2;SDS_P1;SDS_P2;PMS_P1;PMS_P2;Temp;Humidity;BMP_temperature;BMP_pressure;BME280_temperature;BME280_humidity;BME280_pressure;Samples;Min_cycle;Max_cycle;Signal;HPM_P1;HPM_P2
2020/12/01 00:00:20;;;;;;;18.60;12.80;;;5.50;99.90;;;;;;5048861;28;20666;-76
2020/12/01 00:03:05;;;;;;;16.70;13.57;;;5.40;99.90;;;;;;5022574;28;21284;-76
2020/12/01 00:05:51;;;;;;;19.30;13.30;;;5.40;99.90;;;;;;5027397;28;20615;-75
2020/12/01 00:08:38;;;;;;;16.77;13.20;;;5.50;99.90;;;;;;5026498;28;20662;-74
2020/12/01 00:11:22;;;;;;;16.13;12.87;;;5.50;99.90;;;;;;5047149;28;20731;-75
2020/12/01 00:14:07;;;;;;;17.73;12.67;;;5.50;99.90;;;;;;5047179;28;20662;-75
2020/12/01 00:16:52;;;;;;;18.07;13.33;;;5.50;99.90;;;;;;5048719;28;20779;-76
2020/12/01 00:19:36;;;;;;;17.60;13.10;;;5.60;99.90;;;;;;5050961;28;21160;-75
2020/12/01 00:22:21;;;;;;;20.37;13.80;;;5.60;99.90;;;;;;5047955;28;21060;-74
2020/12/01 00:25:07;;;;;;;15.57;13.07;;;5.60;99.90;;;;;;5053493;28;20589;-75
2020/12/01 00:27:52;;;;;;;16.73;12.10;;;5.60;99.90;;;;;;5050747;28;20673;-75
2020/12/01 00:30:37;;;;;;;19.23;13.60;;;5.60;99.90;;;;;;5050092;28;20595;-75
2020/12/01 00:33:21;;;;;;;15.53;12.30;;;5.60;99.90;;;;;;5051292;28;21275;-75
2020/12/01 00:36:06;;;;;;;17.60;11.97;;;5.60;99.90;;;;;;5051629;28;20976;-75
2020/12/01 00:38:51;;;;;;;18.47;13.60;;;5.70;99.90;;;;;;5052194;28;20751;-75
2020/12/01 00:41:38;;;;;;;17.47;12.80;;;5.60;99.90;;;;;;5048393;28;20634;-74
2020/12/01 00:44:22;;;;;;;16.83;13.13;;;5.70;99.90;;;;;;5055019;28;20595;-75
2020/12/01 00:47:06;;;;;;;18.83;13.43;;;5.70;99.90;;;;;;5047947;28;20659;-75
2020/12/01 00:49:52;;;;;;;18.60;14.30;;;5.80;99.90;;;;;;5051038;28;20622;-76
2020/12/01 00:52:36;;;;;;;19.33;12.97;;;5.70;99.90;;;;;;5068910;28;20710;-75
2020/12/01 00:55:21;;;;;;;17.93;13.40;;;5.80;99.90;;;;;;5068252;28;20638;-75
2020/12/01 00:58:05;;;;;;;21.40;15.10;;;5.80;99.90;;;;;;5028578;28;20650;-75
2020/12/01 01:00:49;;;;;;;19.00;13.97;;;5.90;99.90;;;;;;5052777;28;21272;-75
2020/12/01 01:03:34;;;;;;;19.03;13.53;;;5.90;99.90;;;;;;5051149;28;20674;-75
2020/12/01 01:06:18;;;;;;;19.10;13.60;;;5.90;99.90;;;;;;5051390;28;20993;-75
2020/12/01 01:09:04;;;;;;;20.27;14.23;;;5.80;99.90;;;;;;5050394;28;20598;-75
2020/12/01 01:11:51;;;;;;;19.30;14.07;;;5.80;99.90;;;;;;5020515;28;20684;-75
2020/12/01 01:14:37;;;;;;;19.80;15.10;;;5.70;99.90;;;;;;5052091;28;21039;-76
2020/12/01 01:17:22;;;;;;;19.87;15.30;;;5.80;99.90;;;;;;5028390;28;20634;-75
2020/12/01 01:20:08;;;;;;;18.80;14.67;;;5.80;99.90;;;;;;5053039;28;20591;-75
2020/12/01 01:22:52;;;;;;;20.90;15.47;;;5.90;99.90;;;;;;5052839;28;20670;-75
2020/12/01 01:25:36;;;;;;;23.70;15.93;;;5.90;99.90;;;;;;5028337;28;20671;-75
2020/12/01 01:28:21;;;;;;;21.43;15.30;;;5.80;99.90;;;;;;5051111;28;20849;-75
2020/12/01 01:31:05;;;;;;;20.47;15.50;;;5.90;99.90;;;;;;5052027;28;20672;-75
2020/12/01 01:33:54;;;;;;;21.97;16.50;;;5.90;99.90;;;;;;5023132;28;20634;-75
2020/12/01 01:36:38;;;;;;;24.83;17.20;;;6.00;99.90;;;;;;5050631;28;20637;-75
2020/12/01 01:39:23;;;;;;;19.73;14.83;;;5.90;99.90;;;;;;5051790;28;20666;-75
2020/12/01 01:42:08;;;;;;;22.17;16.23;;;6.00;99.90;;;;;;5053893;28;21034;-75
2020/12/01 01:44:52;;;;;;;22.57;16.93;;;6.00;99.90;;;;;;5028510;28;20618;-75
2020/12/01 01:47:38;;;;;;;22.77;15.93;;;5.90;99.90;;;;;;5054564;28;20805;-73
2020/12/01 01:50:22;;;;;;;23.07;16.97;;;5.90;99.90;;;;;;5056189;28;20693;-74
2020/12/01 01:53:08;;;;;;;23.47;15.90;;;5.90;99.90;;;;;;5023114;28;20889;-75
2020/12/01 01:55:58;;;;;;;22.20;16.30;;;5.90;99.90;;;;;;5056550;28;20595;-75
2020/12/01 01:58:45;;;;;;;25.40;16.67;;;6.00;99.90;;;;;;5042386;28;20590;-74
2020/12/01 02:01:30;;;;;;;22.47;16.57;;;6.00;99.90;;;;;;5059944;28;23604;-75
2020/12/01 02:04:15;;;;;;;22.30;16.00;;;6.10;99.90;;;;;;5065442;28;20670;-75
2020/12/01 02:07:04;;;;;;;24.73;17.43;;;6.00;99.90;;;;;;5075816;22;20702;-67
2020/12/01 02:09:53;;;;;;;22.47;15.53;;;5.90;99.90;;;;;;5018849;28;20626;-67
2020/12/01 02:12:41;;;;;;;22.90;16.47;;;5.90;99.90;;;;;;4986596;28;21244;-66
2020/12/01 02:15:26;;;;;;;20.70;16.13;;;5.90;99.90;;;;;;5005308;28;20635;-66
2020/12/01 02:18:13;;;;;;;24.90;17.27;;;6.00;99.90;;;;;;5008735;28;22985;-67
2020/12/01 02:20:58;;;;;;;25.03;16.10;;;5.90;99.90;;;;;;5004510;28;20678;-68
2020/12/01 02:23:43;;;;;;;25.57;17.00;;;6.00;99.90;;;;;;5005861;28;20716;-67
2020/12/01 02:26:29;;;;;;;22.17;16.10;;;5.90;99.90;;;;;;5006096;28;20727;-67
2020/12/01 02:29:16;;;;;;;22.50;17.07;;;6.00;99.90;;;;;;5018086;28;20957;-67
2020/12/01 02:32:02;;;;;;;24.80;17.60;;;5.90;99.90;;;;;;4998906;28;20667;-67
2020/12/01 02:34:47;;;;;;;23.57;17.33;;;5.90;99.90;;;;;;5004749;28;20595;-67
2020/12/01 02:37:32;;;;;;;25.20;16.50;;;6.00;99.90;;;;;;5008353;28;20798;-67
2020/12/01 02:40:17;;;;;;;26.70;17.40;;;5.90;99.90;;;;;;5007277;28;20584;-67
2020/12/01 02:43:08;;;;;;;27.37;18.77;;;5.90;99.90;;;;;;5002619;28;20643;-66
2020/12/01 02:45:53;;;;;;;22.77;16.60;;;5.90;99.90;;;;;;4999566;28;20627;-66
2020/12/01 02:48:38;;;;;;;22.40;16.10;;;6.00;99.90;;;;;;5004274;28;21241;-67
2020/12/01 02:51:23;;;;;;;25.03;17.27;;;6.00;99.90;;;;;;5002794;28;20772;-67
2020/12/01 02:54:07;;;;;;;25.67;17.77;;;5.90;99.90;;;;;;5003492;28;20954;-66
2020/12/01 02:56:52;;;;;;;24.07;17.70;;;5.90;99.90;;;;;;4996741;28;20651;-67
2020/12/01 02:59:36;;;;;;;24.30;16.57;;;5.90;99.90;;;;;;4996619;28;21161;-67
2020/12/01 03:02:21;;;;;;;22.70;16.90;;;5.90;99.90;;;;;;4998701;28;21008;-67
2020/12/01 03:05:05;;;;;;;23.23;16.70;;;6.00;99.90;;;;;;4999955;28;20610;-67
2020/12/01 03:07:49;;;;;;;22.77;15.70;;;6.00;99.90;;;;;;5001757;28;20678;-67
2020/12/01 03:10:34;;;;;;;26.13;17.40;;;6.00;99.90;;;;;;4993313;28;20615;-68
2020/12/01 03:13:18;;;;;;;24.27;16.67;;;6.00;99.90;;;;;;4993589;28;20655;-67
2020/12/01 03:16:08;;;;;;;24.00;18.47;;;6.00;99.90;;;;;;5002124;28;20623;-66
2020/12/01 03:18:53;;;;;;;23.10;16.40;;;6.00;99.90;;;;;;5001877;28;21259;-66
2020/12/01 03:21:37;;;;;;;25.00;16.60;;;6.00;99.90;;;;;;5005364;28;21268;-67
2020/12/01 03:24:22;;;;;;;24.33;17.60;;;6.00;99.90;;;;;;5006101;28;20591;-67
2020/12/01 03:27:06;;;;;;;22.00;16.93;;;5.90;99.90;;;;;;5001926;28;20737;-67
2020/12/01 03:29:51;;;;;;;22.90;16.33;;;6.00;99.90;;;;;;5001312;28;21048;-66
2020/12/01 03:32:35;;;;;;;24.50;16.37;;;6.00;99.90;;;;;;4997459;28;21284;-67
2020/12/01 03:35:19;;;;;;;27.60;16.90;;;6.00;99.90;;;;;;4997634;28;20734;-66
2020/12/01 03:38:04;;;;;;;24.13;17.90;;;5.90;99.90;;;;;;5006047;28;20638;-67
2020/12/01 03:40:48;;;;;;;24.40;17.67;;;5.90;99.90;;;;;;5000138;28;20710;-67
2020/12/01 03:43:33;;;;;;;27.50;17.90;;;6.00;99.90;;;;;;4987641;28;20605;-66
2020/12/01 03:46:18;;;;;;;27.40;18.30;;;6.00;99.90;;;;;;4988249;28;20616;-67
2020/12/01 03:49:03;;;;;;;25.33;17.37;;;6.00;99.90;;;;;;4985033;28;20604;-66
2020/12/01 03:51:47;;;;;;;27.70;18.40;;;6.00;99.90;;;;;;4984485;28;21071;-66
2020/12/01 03:54:32;;;;;;;24.30;17.50;;;6.10;99.90;;;;;;4988141;28;20763;-67
2020/12/01 03:57:16;;;;;;;27.20;17.90;;;6.10;99.90;;;;;;4980985;28;21223;-67
2020/12/01 04:00:02;;;;;;;22.83;16.30;;;6.10;99.90;;;;;;4988643;28;20715;-66
2020/12/01 04:02:49;;;;;;;23.80;17.53;;;6.10;99.90;;;;;;4983749;28;20838;-66
2020/12/01 04:05:33;;;;;;;28.60;18.40;;;6.10;99.90;;;;;;4992621;28;20596;-66
2020/12/01 04:08:18;;;;;;;27.00;18.83;;;6.20;99.90;;;;;;4989839;28;20819;-67
2020/12/01 04:11:04;;;;;;;25.30;18.07;;;6.10;99.90;;;;;;4981684;28;20593;-67
2020/12/01 04:13:48;;;;;;;28.73;17.90;;;6.20;99.90;;;;;;4984241;28;20637;-67
2020/12/01 04:16:33;;;;;;;25.70;17.70;;;6.20;99.90;;;;;;4986774;28;21270;-67
2020/12/01 04:19:17;;;;;;;23.17;17.97;;;6.20;99.90;;;;;;4987426;28;21108;-66
2020/12/01 04:22:02;;;;;;;25.33;18.30;;;6.20;99.90;;;;;;4982931;28;20656;-66
2020/12/01 04:24:47;;;;;;;26.27;18.00;;;6.20;99.90;;;;;;4987503;28;20608;-66
2020/12/01 04:27:32;;;;;;;24.57;18.63;;;6.20;99.90;;;;;;4989978;28;20664;-66
2020/12/01 04:30:19;;;;;;;24.10;17.90;;;6.20;99.90;;;;;;4990579;28;20596;-67
2020/12/01 04:33:03;;;;;;;27.00;18.43;;;6.20;99.90;;;;;;4985930;28;20739;-66
2020/12/01 04:35:49;;;;;;;26.07;17.60;;;6.10;99.90;;;;;;4989999;28;20598;-66
2020/12/01 04:38:34;;;;;;;29.97;19.23;;;6.20;99.90;;;;;;4981785;28;21005;-67
2020/12/01 04:41:18;;;;;;;27.07;18.80;;;6.20;99.90;;;;;;4989802;28;20663;-66
2020/12/01 04:44:04;;;;;;;29.07;18.77;;;6.20;99.90;;;;;;4987962;28;20592;-67
2020/12/01 04:46:50;;;;;;;29.23;20.30;;;6.20;99.90;;;;;;4979259;28;21027;-67
2020/12/01 04:49:40;;;;;;;28.43;18.80;;;6.20;99.90;;;;;;4986262;28;21257;-67
2020/12/01 04:52:31;;;;;;;25.77;18.63;;;6.10;99.90;;;;;;4984439;28;20660;-67
2020/12/01 04:55:48;;;;;;;26.80;18.10;;;6.10;99.90;;;;;;4987205;28;20592;-67
2020/12/01 04:59:09;;;;;;;28.30;19.67;;;6.10;99.90;;;;;;4972092;28;21259;-66
2020/12/01 05:02:15;;;;;;;26.90;18.10;;;6.10;99.90;;;;;;4985077;28;20633;-66
2020/12/01 05:05:08;;;;;;;26.50;19.30;;;6.10;99.90;;;;;;4976405;28;20696;-66
2020/12/01 05:08:31;;;;;;;28.60;18.03;;;6.10;99.90;;;;;;4986109;28;21036;-67
2020/12/01 05:11:23;;;;;;;25.60;17.93;;;6.10;99.90;;;;;;4993302;28;20640;-67
2020/12/01 05:14:34;;;;;;;27.20;17.97;;;6.10;99.90;;;;;;4992571;28;20624;-66
2020/12/01 05:17:49;;;;;;;25.33;18.30;;;6.10;99.90;;;;;;4989665;28;20659;-66
2020/12/01 05:21:02;;;;;;;25.17;17.90;;;6.20;99.90;;;;;;4985959;28;20660;-66
2020/12/01 05:23:48;;;;;;;25.60;18.13;;;6.10;99.90;;;;;;4989863;28;20647;-66
2020/12/01 05:26:38;;;;;;;23.73;17.17;;;6.00;99.90;;;;;;4993403;28;20595;-65
2020/12/01 05:29:24;;;;;;;25.70;17.83;;;6.00;99.90;;;;;;4989303;28;20597;-66
2020/12/01 05:32:09;;;;;;;25.23;17.10;;;5.90;99.90;;;;;;4983491;28;20632;-66
2020/12/01 05:34:54;;;;;;;24.90;17.77;;;5.90;99.90;;;;;;4988876;28;20711;-66
2020/12/01 05:37:39;;;;;;;27.50;18.47;;;5.90;99.90;;;;;;4990325;28;20742;-66
2020/12/01 05:40:26;;;;;;;25.00;17.57;;;6.00;99.90;;;;;;4986679;28;20625;-68
2020/12/01 05:43:35;;;;;;;25.67;17.93;;;6.00;99.90;;;;;;4994675;28;20647;-66
2020/12/01 05:46:52;;;;;;;24.80;16.53;;;5.90;99.90;;;;;;4985823;28;20620;-66
2020/12/01 05:50:03;;;;;;;25.07;17.83;;;6.00;99.90;;;;;;4991278;28;20624;-66
2020/12/01 05:53:10;;;;;;;26.00;17.63;;;5.90;99.90;;;;;;4985993;28;21128;-66
2020/12/01 05:56:17;;;;;;;24.97;17.27;;;5.80;99.90;;;;;;4998323;28;21052;-67
2020/12/01 05:59:12;;;;;;;24.57;16.80;;;5.80;99.90;;;;;;4992612;28;20584;-66
2020/12/01 06:02:04;;;;;;;27.40;18.17;;;5.80;99.90;;;;;;4985529;28;20652;-66
2020/12/01 06:04:49;;;;;;;23.13;16.57;;;5.80;99.90;;;;;;4979620;28;20592;-67
2020/12/01 06:07:35;;;;;;;25.87;17.43;;;5.90;99.90;;;;;;4985084;28;20721;-66
2020/12/01 06:10:34;;;;;;;25.70;18.00;;;5.80;99.90;;;;;;4982212;28;20589;-66
2020/12/01 06:13:41;;;;;;;25.43;17.47;;;5.70;99.90;;;;;;4999974;28;20664;-66
2020/12/01 06:16:41;;;;;;;27.10;18.30;;;5.80;99.90;;;;;;4990404;28;20599;-66
2020/12/01 06:19:33;;;;;;;26.20;17.93;;;5.70;99.90;;;;;;4982533;28;21325;-66
2020/12/01 06:22:20;;;;;;;27.33;17.83;;;5.70;99.90;;;;;;4988137;28;20637;-65
2020/12/01 06:25:28;;;;;;;25.23;17.10;;;5.70;99.90;;;;;;4980063;28;20641;-67
2020/12/01 06:28:52;;;;;;;28.00;16.93;;;5.70;99.90;;;;;;4981591;28;20647;-66
2020/12/01 06:32:13;;;;;;;23.90;16.97;;;5.70;99.90;;;;;;4984527;28;20632;-63
2020/12/01 06:35:23;;;;;;;27.03;17.03;;;5.60;99.90;;;;;;4970949;28;21148;-63
2020/12/01 06:38:37;;;;;;;27.50;17.90;;;5.70;99.90;;;;;;4980211;28;20699;-63
2020/12/01 06:41:24;;;;;;;25.40;16.67;;;5.80;99.90;;;;;;4985487;28;21237;-62
2020/12/01 06:44:15;;;;;;;24.80;17.20;;;5.70;99.90;;;;;;4982193;28;20672;-63
2020/12/01 06:47:00;;;;;;;24.73;16.00;;;5.70;99.90;;;;;;4995209;28;20638;-63
2020/12/01 06:49:44;;;;;;;24.70;16.37;;;5.70;99.90;;;;;;4982252;28;20639;-63
2020/12/01 06:52:28;;;;;;;25.97;17.07;;;5.80;99.90;;;;;;4986469;28;20671;-64
2020/12/01 06:55:39;;;;;;;25.80;15.33;;;5.70;99.90;;;;;;4990709;28;20736;-64
2020/12/01 06:58:26;;;;;;;23.93;15.30;;;5.70;99.90;;;;;;4993104;28;20684;-64
2020/12/01 07:01:28;;;;;;;26.47;17.70;;;5.70;99.90;;;;;;4990448;28;20746;-64
2020/12/01 07:04:12;;;;;;;25.33;17.30;;;5.70;99.90;;;;;;4971873;28;20627;-63
2020/12/01 07:07:03;;;;;;;25.37;16.80;;;5.70;99.90;;;;;;4980955;28;20670;-64
2020/12/01 07:09:48;;;;;;;23.17;16.50;;;5.70;99.90;;;;;;4987210;28;20636;-64
2020/12/01 07:13:13;;;;;;;23.80;16.57;;;5.80;99.90;;;;;;4983856;28;20637;-64
2020/12/01 07:16:08;;;;;;;24.97;15.67;;;5.80;99.90;;;;;;4949680;28;20620;-64
2020/12/01 07:18:58;;;;;;;23.23;15.90;;;5.80;99.90;;;;;;4991511;28;20651;-63
2020/12/01 07:22:11;;;;;;;25.00;16.43;;;5.90;99.90;;;;;;4994001;28;21267;-64
2020/12/01 07:25:34;;;;;;;23.70;15.77;;;5.90;99.90;;;;;;4989346;28;20601;-63
2020/12/01 07:28:33;;;;;;;24.10;15.53;;;5.90;99.90;;;;;;5001001;28;20655;-64
2020/12/01 07:31:33;;;;;;;22.07;15.23;;;5.90;99.90;;;;;;4984932;28;20730;-64
2020/12/01 07:34:32;;;;;;;24.50;15.60;;;5.80;99.90;;;;;;4994285;28;20631;-64
2020/12/01 07:37:28;;;;;;;24.77;16.20;;;5.90;99.90;;;;;;4997528;28;20661;-63
2020/12/01 07:40:23;;;;;;;23.77;15.90;;;5.90;99.90;;;;;;4985876;28;20644;-64
2020/12/01 07:43:12;;;;;;;22.00;15.90;;;5.90;99.90;;;;;;4985461;28;20660;-63
2020/12/01 07:46:02;;;;;;;26.87;17.47;;;5.90;99.90;;;;;;4985793;28;21304;-63
2020/12/01 07:48:59;;;;;;;24.20;16.70;;;5.90;99.90;;;;;;4996473;28;20656;-64
2020/12/01 07:51:44;;;;;;;24.23;15.90;;;5.90;99.90;;;;;;4988060;28;20629;-63
2020/12/01 07:54:31;;;;;;;24.20;16.87;;;6.00;99.90;;;;;;4983311;28;20612;-64
2020/12/01 07:57:19;;;;;;;22.27;16.80;;;5.90;99.90;;;;;;4988231;28;20660;-64
2020/12/01 08:00:04;;;;;;;25.00;16.40;;;6.00;99.90;;;;;;4988264;28;21211;-64
2020/12/01 08:02:49;;;;;;;22.30;15.07;;;6.00;99.90;;;;;;4987374;28;20793;-63
2020/12/01 08:05:33;;;;;;;24.80;16.23;;;6.00;99.90;;;;;;5002843;28;20589;-64
2020/12/01 08:08:20;;;;;;;22.50;15.77;;;6.10;99.90;;;;;;4985501;28;20736;-63
2020/12/01 08:11:10;;;;;;;24.03;15.20;;;6.00;99.90;;;;;;4995247;28;20699;-64
2020/12/01 08:13:56;;;;;;;23.03;15.10;;;6.00;99.90;;;;;;4988786;28;20669;-63
2020/12/01 08:16:42;;;;;;;26.07;16.00;;;6.00;99.90;;;;;;4984701;28;20676;-63
2020/12/01 08:19:29;;;;;;;22.33;15.90;;;6.00;99.90;;;;;;4988424;28;20940;-64
2020/12/01 08:22:19;;;;;;;26.27;17.07;;;6.00;99.90;;;;;;4986943;28;21040;-62
2020/12/01 08:25:20;;;;;;;24.17;16.60;;;5.90;99.90;;;;;;4989729;28;20611;-61
2020/12/01 08:28:18;;;;;;;27.47;17.50;;;6.00;99.90;;;;;;4983759;28;20791;-63
2020/12/01 08:31:05;;;;;;;23.13;15.70;;;6.00;99.90;;;;;;4986384;28;21211;-63
2020/12/01 08:34:04;;;;;;;24.37;16.87;;;6.10;99.90;;;;;;4986367;28;20624;-62
2020/12/01 08:37:19;;;;;;;27.10;17.87;;;6.00;99.90;;;;;;4991298;28;20639;-64
2020/12/01 08:40:34;;;;;;;25.57;17.23;;;6.10;99.90;;;;;;4998690;28;20565;-64
2020/12/01 08:43:26;;;;;;;22.70;15.03;;;6.10;99.90;;;;;;4958126;28;20656;-64
2020/12/01 08:46:23;;;;;;;24.50;16.10;;;6.10;99.90;;;;;;4980926;28;20589;-64
2020/12/01 08:49:40;;;;;;;25.63;16.83;;;6.10;99.90;;;;;;4989020;28;20628;-64
2020/12/01 08:52:40;;;;;;;22.80;15.70;;;6.10;99.90;;;;;;4992465;28;20637;-64
2020/12/01 08:55:44;;;;;;;24.13;16.37;;;6.20;99.90;;;;;;4997601;28;20728;-63
2020/12/01 08:58:43;;;;;;;25.03;16.40;;;6.20;99.90;;;;;;5003287;28;21015;-64
2020/12/01 09:01:39;;;;;;;24.07;16.10;;;6.20;99.90;;;;;;4986068;28;20624;-64
2020/12/01 09:04:27;;;;;;;27.20;17.07;;;6.10;99.90;;;;;;4993793;28;20986;-64
2020/12/01 09:07:17;;;;;;;27.17;17.90;;;6.00;99.90;;;;;;4988469;28;20662;-64
2020/12/01 09:10:09;;;;;;;25.43;17.00;;;6.10;99.90;;;;;;4990248;28;20648;-64
2020/12/01 09:16:21;;;;;;;25.30;16.60;;;6.10;99.90;;;;;;4988273;28;20995;-64
2020/12/01 09:22:21;;;;;;;25.07;17.20;;;6.10;99.90;;;;;;4984470;28;21102;-64
2020/12/01 09:25:12;;;;;;;27.50;17.00;;;6.10;99.90;;;;;;4984290;28;21187;-63
2020/12/01 09:27:57;;;;;;;24.00;16.70;;;6.10;99.90;;;;;;4988968;28;21038;-64
2020/12/01 09:30:43;;;;;;;24.23;16.07;;;6.10;99.90;;;;;;4984888;28;20635;-63
2020/12/01 09:33:27;;;;;;;24.00;15.97;;;6.20;99.90;;;;;;4991336;28;20672;-64
2020/12/01 09:36:20;;;;;;;24.77;16.90;;;6.20;99.90;;;;;;4999597;28;20639;-64
2020/12/01 09:39:05;;;;;;;24.50;16.37;;;6.30;99.90;;;;;;4997127;28;20585;-64
2020/12/01 09:42:00;;;;;;;22.60;15.90;;;6.30;99.90;;;;;;5004561;28;20639;-64
2020/12/01 09:45:03;;;;;;;23.13;15.67;;;6.30;99.90;;;;;;5004719;28;20604;-64
2020/12/01 09:48:03;;;;;;;25.57;16.53;;;6.30;99.90;;;;;;5000942;28;20722;-64
2020/12/01 09:50:48;;;;;;;22.80;15.83;;;6.30;99.90;;;;;;5006095;28;20970;-64
2020/12/01 09:59:45;;;;;;;23.57;16.33;;;6.40;99.90;;;;;;5013807;28;21110;-64
2020/12/01 10:08:46;;;;;;;23.63;17.57;;;6.50;99.90;;;;;;5012154;28;20651;-64
2020/12/01 10:26:27;;;;;;;25.23;17.40;;;6.60;99.90;;;;;;5015226;28;20719;-64
2020/12/01 10:37:34;;;;;;;32.40;19.77;;;6.60;99.90;;;;;;5014415;28;21297;-65
2020/12/01 10:40:20;;;;;;;26.43;18.30;;;6.60;99.90;;;;;;5003153;28;20624;-64
2020/12/01 10:43:04;;;;;;;26.83;16.67;;;6.60;99.90;;;;;;4998959;28;20673;-64
2020/12/01 10:45:48;;;;;;;28.10;17.97;;;6.60;99.90;;;;;;5006549;28;20704;-64
2020/12/01 10:48:33;;;;;;;26.97;17.83;;;6.60;99.90;;;;;;5002602;28;21138;-64
2020/12/01 10:51:17;;;;;;;29.33;17.77;;;6.60;99.90;;;;;;4999410;28;20705;-64
2020/12/01 10:54:05;;;;;;;27.00;18.80;;;6.60;99.90;;;;;;4993218;28;20858;-64
2020/12/01 10:56:50;;;;;;;28.93;19.03;;;6.60;99.90;;;;;;5007308;28;20587;-64
2020/12/01 10:59:36;;;;;;;31.37;19.67;;;6.60;99.90;;;;;;4999352;28;20719;-62
2020/12/01 11:02:20;;;;;;;25.30;16.83;;;6.70;99.90;;;;;;4993798;28;21109;-64
2020/12/01 11:05:08;;;;;;;27.20;18.20;;;6.60;99.90;;;;;;5002197;28;21271;-64
2020/12/01 11:07:53;;;;;;;25.20;16.57;;;6.70;99.90;;;;;;5005894;28;20820;-63
2020/12/01 11:10:37;;;;;;;25.57;17.77;;;6.60;99.90;;;;;;4993810;28;20667;-64
2020/12/01 11:13:22;;;;;;;28.47;18.03;;;6.60;99.90;;;;;;5005705;28;20656;-65
2020/12/01 11:16:06;;;;;;;28.63;17.70;;;6.70;99.90;;;;;;5004265;28;21289;-65
2020/12/01 11:18:51;;;;;;;24.80;16.53;;;6.70;99.90;;;;;;4998317;28;20639;-65
2020/12/01 11:21:36;;;;;;;30.10;20.00;;;6.60;99.90;;;;;;5000561;28;20676;-65
2020/12/01 11:24:21;;;;;;;26.27;18.03;;;6.60;99.90;;;;;;5002461;28;21279;-65
2020/12/01 11:27:05;;;;;;;28.40;19.23;;;6.60;99.90;;;;;;5000002;28;20658;-64
2020/12/01 11:29:50;;;;;;;25.83;17.00;;;6.60;99.90;;;;;;4997152;28;20605;-64
2020/12/01 11:32:34;;;;;;;24.63;16.70;;;6.60;99.90;;;;;;4992567;28;20639;-64
2020/12/01 11:35:21;;;;;;;28.00;17.10;;;6.60;99.90;;;;;;4994717;28;20658;-64
2020/12/01 11:38:06;;;;;;;27.97;18.50;;;6.70;99.90;;;;;;5006048;28;20639;-64
2020/12/01 11:40:50;;;;;;;30.43;18.63;;;6.70;99.90;;;;;;5005768;28;21232;-64
2020/12/01 11:43:35;;;;;;;27.53;16.90;;;6.70;99.90;;;;;;5004470;28;20594;-65
2020/12/01 11:46:19;;;;;;;26.07;18.37;;;6.60;99.90;;;;;;4993697;28;20584;-64
2020/12/01 11:49:04;;;;;;;25.10;16.63;;;6.70;99.90;;;;;;5009837;28;20743;-64
2020/12/01 11:51:49;;;;;;;24.07;15.67;;;6.60;99.90;;;;;;4993869;28;20635;-64
2020/12/01 11:54:34;;;;;;;24.30;16.27;;;6.70;99.90;;;;;;4996740;28;20650;-63
2020/12/01 11:57:18;;;;;;;25.93;16.67;;;6.70;99.90;;;;;;5004070;28;20667;-64
2020/12/01 12:00:05;;;;;;;24.30;15.23;;;6.70;99.90;;;;;;4998221;28;20647;-64
2020/12/01 12:02:50;;;;;;;22.47;15.47;;;6.70;99.90;;;;;;4991048;28;20648;-65
2020/12/01 12:05:34;;;;;;;24.77;17.03;;;6.70;99.90;;;;;;4999640;28;21196;-65
2020/12/01 12:08:19;;;;;;;25.57;17.40;;;6.70;99.90;;;;;;5009104;28;20666;-65
2020/12/01 12:11:03;;;;;;;27.03;17.83;;;6.70;99.90;;;;;;4991898;28;21054;-65
2020/12/01 12:13:48;;;;;;;26.67;17.20;;;6.70;99.90;;;;;;4996467;28;20706;-65
2020/12/01 12:16:32;;;;;;;24.97;17.87;;;6.80;99.90;;;;;;4998128;28;20611;-63
2020/12/01 12:19:17;;;;;;;25.73;17.40;;;6.80;99.90;;;;;;5003294;28;21182;-62
2020/12/01 12:22:02;;;;;;;28.93;17.03;;;6.70;99.90;;;;;;5003993;28;20632;-65
2020/12/01 12:24:46;;;;;;;23.70;16.53;;;6.70;99.90;;;;;;5003592;28;20791;-65
2020/12/01 12:27:32;;;;;;;31.17;17.80;;;6.80;99.90;;;;;;4999967;28;20648;-64
2020/12/01 12:30:16;;;;;;;22.87;16.37;;;6.80;99.90;;;;;;5005634;28;20691;-62
2020/12/01 12:33:01;;;;;;;24.43;17.60;;;6.80;99.90;;;;;;4998931;28;20681;-64
2020/12/01 12:35:45;;;;;;;25.17;17.30;;;6.80;99.90;;;;;;4992748;28;20782;-64
2020/12/01 12:38:30;;;;;;;24.63;16.27;;;6.80;99.90;;;;;;5000732;28;20710;-64
2020/12/01 12:41:15;;;;;;;25.50;16.10;;;6.80;99.90;;;;;;4991743;28;20685;-65
2020/12/01 12:44:03;;;;;;;22.73;16.43;;;6.90;99.90;;;;;;5001411;28;20627;-65
2020/12/01 12:46:47;;;;;;;24.20;15.97;;;6.80;99.90;;;;;;5009147;28;20792;-65
2020/12/01 12:49:32;;;;;;;24.00;16.67;;;6.80;99.90;;;;;;5001097;28;20587;-65
2020/12/01 12:52:18;;;;;;;19.97;15.93;;;6.80;99.90;;;;;;4998170;28;20770;-65
2020/12/01 12:55:03;;;;;;;22.07;16.70;;;6.80;99.90;;;;;;4997540;28;20626;-65
2020/12/01 12:57:48;;;;;;;22.17;16.90;;;6.80;99.90;;;;;;4999692;28;20646;-65
2020/12/01 13:00:33;;;;;;;22.20;15.20;;;6.90;99.90;;;;;;4997349;28;20686;-65
2020/12/01 13:03:17;;;;;;;22.10;15.43;;;6.80;99.90;;;;;;4998874;28;20643;-65
2020/12/01 13:06:02;;;;;;;21.77;15.13;;;6.80;99.90;;;;;;5001820;28;20614;-65
2020/12/01 13:08:47;;;;;;;21.87;15.53;;;6.90;99.90;;;;;;4991805;28;21295;-65
2020/12/01 13:11:31;;;;;;;20.23;14.27;;;6.80;99.90;;;;;;5003670;28;20647;-65
2020/12/01 13:14:16;;;;;;;25.30;16.60;;;6.80;99.90;;;;;;4989858;28;20670;-65
2020/12/01 13:17:00;;;;;;;23.20;15.67;;;6.80;99.90;;;;;;5003460;28;20635;-65
2020/12/01 13:19:45;;;;;;;22.17;15.67;;;6.80;99.90;;;;;;5005312;28;20588;-65
2020/12/01 13:22:30;;;;;;;21.03;14.90;;;6.70;99.90;;;;;;5005512;28;21275;-65
2020/12/01 13:25:15;;;;;;;20.40;14.60;;;6.70;99.90;;;;;;4995843;28;20703;-65
2020/12/01 13:27:59;;;;;;;23.23;15.80;;;6.70;99.90;;;;;;5001301;28;21272;-65
2020/12/01 13:30:44;;;;;;;22.70;14.50;;;6.80;99.90;;;;;;4999808;28;20602;-63
2020/12/01 13:33:28;;;;;;;25.27;14.87;;;6.70;99.90;;;;;;5008811;28;21255;-65
2020/12/01 13:36:13;;;;;;;21.70;15.37;;;6.80;99.90;;;;;;4999349;28;20586;-65
2020/12/01 13:38:57;;;;;;;21.13;14.60;;;6.80;99.90;;;;;;5000810;28;20769;-65
2020/12/01 13:41:42;;;;;;;22.00;14.50;;;6.80;99.90;;;;;;5006216;28;20667;-65
2020/12/01 13:44:26;;;;;;;24.87;16.33;;;6.70;99.90;;;;;;5007658;28;21349;-65
2020/12/01 13:47:11;;;;;;;20.20;14.40;;;6.80;99.90;;;;;;4999340;28;20670;-65
2020/12/01 13:49:55;;;;;;;22.27;15.90;;;6.70;99.90;;;;;;5002697;28;20796;-65
2020/12/01 13:52:40;;;;;;;20.53;15.27;;;6.70;99.90;;;;;;4996254;28;20682;-65
2020/12/01 13:55:25;;;;;;;22.67;14.87;;;6.70;99.90;;;;;;5008166;28;20631;-64
2020/12/01 13:58:09;;;;;;;26.40;15.00;;;6.80;99.90;;;;;;5011494;28;20701;-65
2020/12/01 14:00:54;;;;;;;20.63;15.27;;;6.80;99.90;;;;;;4999604;28;21060;-64
2020/12/01 14:03:39;;;;;;;31.40;21.50;;;6.80;99.90;;;;;;5000339;28;20623;-65
2020/12/01 14:06:23;;;;;;;31.87;22.07;;;6.70;99.90;;;;;;5006781;28;20615;-65
2020/12/01 14:11:36;;;;;;;23.53;15.93;;;6.70;99.90;;;;;;5044521;28;21117;-74
2020/12/01 14:14:22;;;;;;;24.00;16.20;;;6.80;99.90;;;;;;5039341;28;20668;-75
2020/12/01 14:17:06;;;;;;;24.67;16.10;;;6.80;99.90;;;;;;5045526;28;20716;-74
2020/12/01 14:19:51;;;;;;;23.93;15.33;;;6.80;99.90;;;;;;5043632;28;20806;-75
2020/12/01 14:22:36;;;;;;;27.27;16.30;;;6.80;99.90;;;;;;5034647;28;20663;-75
2020/12/01 14:25:21;;;;;;;23.30;15.83;;;6.70;99.90;;;;;;5032112;28;20648;-74
2020/12/01 14:28:05;;;;;;;24.67;17.53;;;6.70;99.90;;;;;;5030787;28;20587;-74
2020/12/01 14:30:51;;;;;;;29.90;18.00;;;6.70;99.90;;;;;;5037091;28;20652;-74
2020/12/01 14:33:38;;;;;;;26.80;17.20;;;6.70;99.90;;;;;;5029833;28;21228;-74
2020/12/01 14:36:29;;;;;;;30.07;19.07;;;6.70;99.90;;;;;;5027979;28;20696;-74
2020/12/01 14:39:17;;;;;;;32.20;18.60;;;6.80;99.90;;;;;;5029645;28;20948;-74
2020/12/01 14:42:07;;;;;;;25.57;17.27;;;6.80;99.90;;;;;;5037381;28;20763;-74
2020/12/01 14:44:52;;;;;;;27.13;16.57;;;6.80;99.90;;;;;;5028282;28;20964;-74
2020/12/01 14:47:54;;;;;;;29.70;17.67;;;6.70;99.90;;;;;;5029697;28;20710;-74
2020/12/01 14:51:00;;;;;;;28.90;18.00;;;6.80;99.90;;;;;;5030850;28;20625;-74
2020/12/01 14:54:01;;;;;;;25.93;17.83;;;6.70;99.90;;;;;;5025361;28;20813;-74
2020/12/01 14:57:00;;;;;;;22.60;16.27;;;6.70;99.90;;;;;;5029053;28;20709;-75
2020/12/01 15:00:05;;;;;;;28.40;17.40;;;6.60;99.90;;;;;;5031270;28;20615;-74
2020/12/01 15:03:00;;;;;;;30.00;18.50;;;6.70;99.90;;;;;;5025579;28;20867;-74
2020/12/01 15:06:04;;;;;;;31.40;19.43;;;6.70;99.90;;;;;;5006659;28;20608;-74
2020/12/01 15:09:02;;;;;;;33.20;19.13;;;6.70;99.90;;;;;;5009500;28;20673;-74
2020/12/01 15:11:50;;;;;;;27.77;19.20;;;6.60;99.90;;;;;;5023032;28;20636;-74